sensor_id;sensor_type;location;lat;lon;timestamp;P1;durP1;ratioP1;P2;durP2;ratioP2
78079;SDS011;67298;51.322;5.958;2024-03-23T01:52:46;12.7;;;6.5;;
78079;SDS011;67298;51.322;5.958;2024-03-23T01:57:26;10.6;;;6.1;;
78079;SDS011;67298;51.322;5.958;2024-03-23T02:02:05;13.3;;;7.6;;
78079;SDS011;67298;51.322;5.958;2024-03-23T02:06:44;8.7;;;5.3;;
78079;SDS011;67298;51.322;5.958;2024-03-23T02:11:24;2.2;;;1.6;;
78079;SDS011;67298;51.322;5.958;2024-03-23T02:16:03;12.0;;;6.8;;
78079;SDS011;67298;51.322;5.958;2024-03-23T02:20:43;14.2;;;7.5;;
78079;SDS011;67298;51.322;5.958;2024-03-23T02:25:22;13.8;;;8.3;;
78079;SDS011;67298;51.322;5.958;2024-03-23T02:30:02;14.0;;;7.6;;
78079;SDS011;67298;51.322;5.958;2024-03-23T02:34:42;11.6;;;6.6;;
78079;SDS011;67298;51.322;5.958;2024-03-23T02:39:21;12.3;;;7.2;;
78079;SDS011;67298;51.322;5.958;2024-03-23T02:44:00;9.3;;;5.9;;
78079;SDS011;67298;51.322;5.958;2024-03-23T02:48:40;5.3;;;3.6;;
78079;SDS011;67298;51.322;5.958;2024-03-23T02:53:19;12.2;;;7.3;;
78079;SDS011;67298;51.322;5.958;2024-03-23T02:57:59;8.1;;;5.4;;
78079;SDS011;67298;51.322;5.958;2024-03-23T03:02:38;10.7;;;6.8;;
78079;SDS011;67298;51.322;5.958;2024-03-23T03:07:18;9.8;;;5.3;;
78079;SDS011;67298;51.322;5.958;2024-03-23T03:11:57;9.1;;;4.5;;
78079;SDS011;67298;51.322;5.958;2024-03-23T03:16:37;10.5;;;6.6;;
78079;SDS011;67298;51.322;5.958;2024-03-23T03:21:16;12.9;;;8.1;;
78079;SDS011;67298;51.322;5.958;2024-03-23T03:25:56;12.6;;;8.5;;
78079;SDS011;67298;51.322;5.958;2024-03-23T03:30:35;12.9;;;7.8;;
78079;SDS011;67298;51.322;5.958;2024-03-23T03:35:15;9.3;;;5.5;;
78079;SDS011;67298;51.322;5.958;2024-03-23T03:39:54;11.5;;;6.9;;
78079;SDS011;67298;51.322;5.958;2024-03-23T03:44:34;8.7;;;5.9;;
78079;SDS011;67298;51.322;5.958;2024-03-23T03:49:13;6.6;;;3.6;;
78079;SDS011;67298;51.322;5.958;2024-03-23T03:53:52;12.2;;;7.5;;
78079;SDS011;67298;51.322;5.958;2024-03-23T03:58:32;12.4;;;7.3;;
78079;SDS011;67298;51.322;5.958;2024-03-23T04:03:12;14.2;;;8.6;;
78079;SDS011;67298;51.322;5.958;2024-03-23T04:07:51;12.8;;;8.4;;
78079;SDS011;67298;51.322;5.958;2024-03-23T04:12:31;7.4;;;5.2;;
78079;SDS011;67298;51.322;5.958;2024-03-23T04:17:10;10.8;;;7.3;;
78079;SDS011;67298;51.322;5.958;2024-03-23T04:21:49;11.9;;;7.7;;
78079;SDS011;67298;51.322;5.958;2024-03-23T04:26:29;13.2;;;8.7;;
78079;SDS011;67298;51.322;5.958;2024-03-23T04:31:08;12.5;;;8.0;;
78079;SDS011;67298;51.322;5.958;2024-03-23T04:35:48;7.6;;;5.3;;
78079;SDS011;67298;51.322;5.958;2024-03-23T04:40:27;10.8;;;7.2;;
78079;SDS011;67298;51.322;5.958;2024-03-23T04:45:07;12.5;;;7.6;;
78079;SDS011;67298;51.322;5.958;2024-03-23T04:49:46;5.1;;;3.4;;
78079;SDS011;67298;51.322;5.958;2024-03-23T04:54:25;12.4;;;7.5;;
78079;SDS011;67298;51.322;5.958;2024-03-23T04:59:05;10.6;;;7.8;;
78079;SDS011;67298;51.322;5.958;2024-03-23T05:03:45;11.9;;;8.6;;
78079;SDS011;67298;51.322;5.958;2024-03-23T05:08:24;11.5;;;7.0;;
78079;SDS011;67298;51.322;5.958;2024-03-23T05:13:04;9.9;;;5.8;;
78079;SDS011;67298;51.322;5.958;2024-03-23T05:17:43;11.3;;;7.5;;
78079;SDS011;67298;51.322;5.958;2024-03-23T05:22:22;12.5;;;7.1;;
78079;SDS011;67298;51.322;5.958;2024-03-23T05:27:02;3.5;;;2.4;;
78079;SDS011;67298;51.322;5.958;2024-03-23T05:31:41;10.7;;;5.9;;
78079;SDS011;67298;51.322;5.958;2024-03-23T05:36:21;7.9;;;5.7;;
78079;SDS011;67298;51.322;5.958;2024-03-23T05:41:00;12.3;;;7.2;;
78079;SDS011;67298;51.322;5.958;2024-03-23T05:45:40;13.4;;;7.8;;
78079;SDS011;67298;51.322;5.958;2024-03-23T05:50:19;2.3;;;1.3;;
78079;SDS011;67298;51.322;5.958;2024-03-23T05:54:58;14.5;;;6.1;;
78079;SDS011;67298;51.322;5.958;2024-03-23T05:59:38;12.7;;;6.6;;
78079;SDS011;67298;51.322;5.958;2024-03-23T06:04:17;11.8;;;7.4;;
78079;SDS011;67298;51.322;5.958;2024-03-23T06:08:57;16.2;;;7.5;;
78079;SDS011;67298;51.322;5.958;2024-03-23T06:13:37;14.0;;;6.4;;
78079;SDS011;67298;51.322;5.958;2024-03-23T06:18:16;17.2;;;7.1;;
78079;SDS011;67298;51.322;5.958;2024-03-23T06:22:56;14.1;;;7.4;;
78079;SDS011;67298;51.322;5.958;2024-03-23T06:27:35;7.7;;;3.0;;
78079;SDS011;67298;51.322;5.958;2024-03-23T06:32:14;12.0;;;6.1;;
78079;SDS011;67298;51.322;5.958;2024-03-23T06:36:54;10.5;;;6.6;;
78079;SDS011;67298;51.322;5.958;2024-03-23T06:41:33;11.6;;;7.8;;
78079;SDS011;67298;51.322;5.958;2024-03-23T06:46:13;11.5;;;7.0;;
78079;SDS011;67298;51.322;5.958;2024-03-23T06:50:52;11.7;;;7.5;;
78079;SDS011;67298;51.322;5.958;2024-03-23T06:55:31;13.3;;;8.6;;
78079;SDS011;67298;51.322;5.958;2024-03-23T07:00:11;8.8;;;5.5;;
78079;SDS011;67298;51.322;5.958;2024-03-23T07:04:51;10.2;;;6.7;;
78079;SDS011;67298;51.322;5.958;2024-03-23T07:09:30;11.1;;;7.8;;
78079;SDS011;67298;51.322;5.958;2024-03-23T07:14:09;9.3;;;6.9;;
78079;SDS011;67298;51.322;5.958;2024-03-23T07:18:49;10.8;;;7.9;;
78079;SDS011;67298;51.322;5.958;2024-03-23T07:23:28;10.8;;;7.3;;
78079;SDS011;67298;51.322;5.958;2024-03-23T07:28:08;6.2;;;4.0;;
78079;SDS011;67298;51.322;5.958;2024-03-23T07:32:47;11.0;;;6.9;;
78079;SDS011;67298;51.322;5.958;2024-03-23T07:37:26;10.7;;;6.3;;
78079;SDS011;67298;51.322;5.958;2024-03-23T07:42:06;10.6;;;7.1;;
78079;SDS011;67298;51.322;5.958;2024-03-23T07:46:45;11.3;;;7.2;;
78079;SDS011;67298;51.322;5.958;2024-03-23T07:51:25;6.2;;;4.6;;
78079;SDS011;67298;51.322;5.958;2024-03-23T07:56:04;9.1;;;5.6;;
78079;SDS011;67298;51.322;5.958;2024-03-23T08:00:44;9.7;;;5.1;;
78079;SDS011;67298;51.322;5.958;2024-03-23T08:05:23;3.1;;;1.9;;
78079;SDS011;67298;51.322;5.958;2024-03-23T08:10:03;9.7;;;6.7;;
78079;SDS011;67298;51.322;5.958;2024-03-23T08:14:42;10.6;;;7.0;;
78079;SDS011;67298;51.322;5.958;2024-03-23T08:19:22;11.4;;;8.0;;
78079;SDS011;67298;51.322;5.958;2024-03-23T08:24:01;5.3;;;2.5;;
78079;SDS011;67298;51.322;5.958;2024-03-23T08:28:41;8.7;;;5.1;;
78079;SDS011;67298;51.322;5.958;2024-03-23T08:33:20;9.6;;;6.7;;
78079;SDS011;67298;51.322;5.958;2024-03-23T08:37:59;7.5;;;4.7;;
78079;SDS011;67298;51.322;5.958;2024-03-23T08:42:39;7.0;;;4.5;;
78079;SDS011;67298;51.322;5.958;2024-03-23T08:47:18;9.7;;;6.8;;
78079;SDS011;67298;51.322;5.958;2024-03-23T08:51:58;7.5;;;2.9;;
78079;SDS011;67298;51.322;5.958;2024-03-23T08:56:37;11.1;;;6.1;;
78079;SDS011;67298;51.322;5.958;2024-03-23T09:01:17;7.6;;;5.3;;
78079;SDS011;67298;51.322;5.958;2024-03-23T09:05:56;9.7;;;5.2;;
78079;SDS011;67298;51.322;5.958;2024-03-23T09:10:39;16.8;;;10.8;;
78079;SDS011;67298;51.322;5.958;2024-03-23T09:15:20;15.6;;;9.0;;
78079;SDS011;67298;51.322;5.958;2024-03-23T09:19:59;17.7;;;10.4;;
78079;SDS011;67298;51.322;5.958;2024-03-23T09:24:40;13.7;;;8.2;;
78079;SDS011;67298;51.322;5.958;2024-03-23T09:29:19;9.3;;;7.0;;
78079;SDS011;67298;51.322;5.958;2024-03-23T09:33:59;15.8;;;9.3;;
78079;SDS011;67298;51.322;5.958;2024-03-23T09:38:38;17.9;;;9.6;;
78079;SDS011;67298;51.322;5.958;2024-03-23T09:43:17;18.4;;;11.6;;
78079;SDS011;67298;51.322;5.958;2024-03-23T09:47:57;13.1;;;7.6;;
78079;SDS011;67298;51.322;5.958;2024-03-23T09:52:37;18.1;;;10.7;;
78079;SDS011;67298;51.322;5.958;2024-03-23T09:57:17;18.4;;;12.1;;
78079;SDS011;67298;51.322;5.958;2024-03-23T10:01:56;14.7;;;8.0;;
78079;SDS011;67298;51.322;5.958;2024-03-23T10:06:36;13.3;;;7.9;;
78079;SDS011;67298;51.322;5.958;2024-03-23T10:11:15;17.9;;;10.9;;
78079;SDS011;67298;51.322;5.958;2024-03-23T10:15:55;10.1;;;6.2;;
78079;SDS011;67298;51.322;5.958;2024-03-23T10:20:35;14.6;;;10.3;;
78079;SDS011;67298;51.322;5.958;2024-03-23T10:25:14;17.2;;;10.5;;
78079;SDS011;67298;51.322;5.958;2024-03-23T10:29:53;9.3;;;6.7;;
78079;SDS011;67298;51.322;5.958;2024-03-23T10:34:33;14.3;;;9.7;;
78079;SDS011;67298;51.322;5.958;2024-03-23T10:39:12;16.6;;;9.2;;
78079;SDS011;67298;51.322;5.958;2024-03-23T10:43:52;6.4;;;3.4;;
78079;SDS011;67298;51.322;5.958;2024-03-23T10:48:31;18.6;;;12.6;;
78079;SDS011;67298;51.322;5.958;2024-03-23T10:53:11;18.5;;;11.5;;
78079;SDS011;67298;51.322;5.958;2024-03-23T10:57:50;20.9;;;13.4;;
78079;SDS011;67298;51.322;5.958;2024-03-23T11:02:29;20.1;;;12.9;;
78079;SDS011;67298;51.322;5.958;2024-03-23T11:07:09;11.6;;;6.3;;
78079;SDS011;67298;51.322;5.958;2024-03-23T11:11:51;18.8;;;11.7;;
78079;SDS011;67298;51.322;5.958;2024-03-23T11:16:40;18.2;;;12.5;;
78079;SDS011;67298;51.322;5.958;2024-03-23T11:21:19;21.0;;;13.7;;
78079;SDS011;67298;51.322;5.958;2024-03-23T11:25:59;23.3;;;12.8;;
78079;SDS011;67298;51.322;5.958;2024-03-23T11:30:55;19.9;;;12.2;;
78079;SDS011;67298;51.322;5.958;2024-03-23T11:35:44;19.8;;;11.7;;
78079;SDS011;67298;51.322;5.958;2024-03-23T11:40:23;24.2;;;14.8;;
78079;SDS011;67298;51.322;5.958;2024-03-23T11:45:03;12.3;;;6.4;;
78079;SDS011;67298;51.322;5.958;2024-03-23T11:49:42;17.1;;;10.4;;
78079;SDS011;67298;51.322;5.958;2024-03-23T11:54:22;21.3;;;12.0;;
78079;SDS011;67298;51.322;5.958;2024-03-23T11:59:02;23.5;;;14.1;;
78079;SDS011;67298;51.322;5.958;2024-03-23T12:03:42;14.9;;;9.5;;
78079;SDS011;67298;51.322;5.958;2024-03-23T12:08:21;13.8;;;10.2;;
78079;SDS011;67298;51.322;5.958;2024-03-23T12:13:05;21.9;;;14.4;;
78079;SDS011;67298;51.322;5.958;2024-03-23T12:17:54;18.5;;;13.0;;
78079;SDS011;67298;51.322;5.958;2024-03-23T12:22:35;20.5;;;13.6;;
78079;SDS011;67298;51.322;5.958;2024-03-23T12:27:15;20.9;;;12.9;;
78079;SDS011;67298;51.322;5.958;2024-03-23T12:31:55;18.8;;;11.1;;
78079;SDS011;67298;51.322;5.958;2024-03-23T12:36:34;20.0;;;12.7;;
78079;SDS011;67298;51.322;5.958;2024-03-23T12:41:13;29.0;;;12.1;;
78079;SDS011;67298;51.322;5.958;2024-03-23T12:45:53;16.6;;;7.5;;
78079;SDS011;67298;51.322;5.958;2024-03-23T12:50:32;17.8;;;9.2;;
78079;SDS011;67298;51.322;5.958;2024-03-23T12:55:13;19.2;;;11.6;;
78079;SDS011;67298;51.322;5.958;2024-03-23T12:59:52;21.9;;;13.4;;
78079;SDS011;67298;51.322;5.958;2024-03-23T13:04:31;16.4;;;9.3;;
78079;SDS011;67298;51.322;5.958;2024-03-23T13:09:11;14.7;;;10.0;;
78079;SDS011;67298;51.322;5.958;2024-03-23T13:13:50;17.0;;;9.4;;
78079;SDS011;67298;51.322;5.958;2024-03-23T13:18:32;22.3;;;14.1;;
78079;SDS011;67298;51.322;5.958;2024-03-23T13:23:12;8.3;;;5.1;;
78079;SDS011;67298;51.322;5.958;2024-03-23T13:27:52;22.6;;;13.8;;
78079;SDS011;67298;51.322;5.958;2024-03-23T13:32:32;21.0;;;13.7;;
78079;SDS011;67298;51.322;5.958;2024-03-23T13:37:11;20.3;;;14.1;;
78079;SDS011;67298;51.322;5.958;2024-03-23T13:41:50;20.3;;;13.5;;
78079;SDS011;67298;51.322;5.958;2024-03-23T13:46:30;19.0;;;12.2;;
78079;SDS011;67298;51.322;5.958;2024-03-23T13:51:09;20.5;;;14.5;;
78079;SDS011;67298;51.322;5.958;2024-03-23T13:55:49;21.0;;;12.0;;
78079;SDS011;67298;51.322;5.958;2024-03-23T14:00:28;23.9;;;14.3;;
78079;SDS011;67298;51.322;5.958;2024-03-23T14:05:07;25.2;;;15.4;;
78079;SDS011;67298;51.322;5.958;2024-03-23T14:09:47;17.8;;;11.6;;
78079;SDS011;67298;51.322;5.958;2024-03-23T14:14:26;20.6;;;14.4;;
78079;SDS011;67298;51.322;5.958;2024-03-23T14:19:06;19.4;;;14.0;;
78079;SDS011;67298;51.322;5.958;2024-03-23T14:23:45;8.6;;;6.3;;
78079;SDS011;67298;51.322;5.958;2024-03-23T14:28:25;22.6;;;14.7;;
78079;SDS011;67298;51.322;5.958;2024-03-23T14:33:04;21.3;;;14.4;;
78079;SDS011;67298;51.322;5.958;2024-03-23T14:37:44;24.1;;;15.8;;
78079;SDS011;67298;51.322;5.958;2024-03-23T14:42:23;23.4;;;15.4;;
78079;SDS011;67298;51.322;5.958;2024-03-23T14:47:02;15.1;;;10.8;;
78079;SDS011;67298;51.322;5.958;2024-03-23T14:51:42;20.6;;;14.7;;
78079;SDS011;67298;51.322;5.958;2024-03-23T14:56:21;22.1;;;15.0;;
78079;SDS011;67298;51.322;5.958;2024-03-23T15:01:01;23.4;;;15.8;;
78079;SDS011;67298;51.322;5.958;2024-03-23T15:05:40;22.4;;;15.6;;
78079;SDS011;67298;51.322;5.958;2024-03-23T15:10:20;19.8;;;14.1;;
78079;SDS011;67298;51.322;5.958;2024-03-23T15:14:59;24.3;;;15.6;;
78079;SDS011;67298;51.322;5.958;2024-03-23T15:19:39;23.3;;;15.9;;
78079;SDS011;67298;51.322;5.958;2024-03-23T15:24:18;12.4;;;5.7;;
78079;SDS011;67298;51.322;5.958;2024-03-23T15:28:58;22.8;;;14.3;;
78079;SDS011;67298;51.322;5.958;2024-03-23T15:33:37;18.3;;;12.7;;
78079;SDS011;67298;51.322;5.958;2024-03-23T15:38:16;22.6;;;15.4;;
78079;SDS011;67298;51.322;5.958;2024-03-23T15:42:56;22.8;;;15.1;;
78079;SDS011;67298;51.322;5.958;2024-03-23T15:47:35;21.5;;;13.0;;
78079;SDS011;67298;51.322;5.958;2024-03-23T15:52:15;23.4;;;15.2;;
78079;SDS011;67298;51.322;5.958;2024-03-23T15:56:54;22.0;;;14.0;;
78079;SDS011;67298;51.322;5.958;2024-03-23T16:01:34;3.2;;;1.8;;
78079;SDS011;67298;51.322;5.958;2024-03-23T16:06:13;23.4;;;16.1;;
78079;SDS011;67298;51.322;5.958;2024-03-23T16:10:53;23.2;;;15.5;;
78079;SDS011;67298;51.322;5.958;2024-03-23T16:15:32;24.4;;;16.6;;
78079;SDS011;67298;51.322;5.958;2024-03-23T16:20:12;25.2;;;15.8;;
78079;SDS011;67298;51.322;5.958;2024-03-23T16:24:51;16.9;;;12.5;;
78079;SDS011;67298;51.322;5.958;2024-03-23T16:29:31;22.3;;;15.4;;
78079;SDS011;67298;51.322;5.958;2024-03-23T16:34:10;24.8;;;14.6;;
78079;SDS011;67298;51.322;5.958;2024-03-23T16:38:50;25.8;;;16.7;;
78079;SDS011;67298;51.322;5.958;2024-03-23T16:43:29;24.6;;;16.4;;
78079;SDS011;67298;51.322;5.958;2024-03-23T16:48:08;20.6;;;14.0;;
78079;SDS011;67298;51.322;5.958;2024-03-23T16:52:48;25.1;;;17.0;;
78079;SDS011;67298;51.322;5.958;2024-03-23T16:57:27;24.1;;;16.3;;
78079;SDS011;67298;51.322;5.958;2024-03-23T17:02:07;20.3;;;11.6;;
78079;SDS011;67298;51.322;5.958;2024-03-23T17:06:46;26.9;;;17.0;;
78079;SDS011;67298;51.322;5.958;2024-03-23T17:11:26;23.4;;;16.1;;
78079;SDS011;67298;51.322;5.958;2024-03-23T17:16:05;27.3;;;19.1;;
78079;SDS011;67298;51.322;5.958;2024-03-23T17:20:45;24.4;;;16.5;;
78079;SDS011;67298;51.322;5.958;2024-03-23T17:25:27;24.2;;;15.5;;
78079;SDS011;67298;51.322;5.958;2024-03-23T17:30:07;26.9;;;18.5;;
78079;SDS011;67298;51.322;5.958;2024-03-23T17:34:46;25.1;;;15.9;;
78079;SDS011;67298;51.322;5.958;2024-03-23T17:39:26;27.2;;;17.9;;
78079;SDS011;67298;51.322;5.958;2024-03-23T17:44:05;25.6;;;17.2;;
78079;SDS011;67298;51.322;5.958;2024-03-23T17:48:45;25.4;;;15.3;;
78079;SDS011;67298;51.322;5.958;2024-03-23T17:53:24;26.4;;;17.7;;
78079;SDS011;67298;51.322;5.958;2024-03-23T17:58:04;25.3;;;16.6;;
78079;SDS011;67298;51.322;5.958;2024-03-23T18:02:43;14.5;;;9.9;;
78079;SDS011;67298;51.322;5.958;2024-03-23T18:07:23;25.2;;;17.5;;
78079;SDS011;67298;51.322;5.958;2024-03-23T18:12:04;27.9;;;18.8;;
78079;SDS011;67298;51.322;5.958;2024-03-23T18:16:43;27.3;;;19.9;;
78079;SDS011;67298;51.322;5.958;2024-03-23T18:21:24;28.2;;;18.3;;
78079;SDS011;67298;51.322;5.958;2024-03-23T18:26:03;25.9;;;16.8;;
78079;SDS011;67298;51.322;5.958;2024-03-23T18:30:43;30.3;;;19.4;;
78079;SDS011;67298;51.322;5.958;2024-03-23T18:35:22;26.2;;;16.9;;
78079;SDS011;67298;51.322;5.958;2024-03-23T18:40:01;7.8;;;7.0;;
78079;SDS011;67298;51.322;5.958;2024-03-23T18:44:41;28.4;;;19.0;;
78079;SDS011;67298;51.322;5.958;2024-03-23T18:49:24;26.7;;;17.8;;
78079;SDS011;67298;51.322;5.958;2024-03-23T18:54:03;27.7;;;18.9;;
78079;SDS011;67298;51.322;5.958;2024-03-23T18:58:43;30.0;;;18.5;;
78079;SDS011;67298;51.322;5.958;2024-03-23T19:03:22;26.1;;;17.7;;
78079;SDS011;67298;51.322;5.958;2024-03-23T19:08:02;29.0;;;19.7;;
78079;SDS011;67298;51.322;5.958;2024-03-23T19:12:41;28.8;;;18.5;;
78079;SDS011;67298;51.322;5.958;2024-03-23T19:17:20;30.6;;;20.0;;
78079;SDS011;67298;51.322;5.958;2024-03-23T19:22:00;29.0;;;18.3;;
78079;SDS011;67298;51.322;5.958;2024-03-23T19:26:39;24.6;;;14.8;;
78079;SDS011;67298;51.322;5.958;2024-03-23T19:31:19;25.9;;;17.0;;
78079;SDS011;67298;51.322;5.958;2024-03-23T19:35:58;25.5;;;16.0;;
78079;SDS011;67298;51.322;5.958;2024-03-23T19:40:38;14.3;;;10.6;;
78079;SDS011;67298;51.322;5.958;2024-03-23T19:45:18;29.3;;;19.6;;
78079;SDS011;67298;51.322;5.958;2024-03-23T19:49:57;31.2;;;18.7;;
78079;SDS011;67298;51.322;5.958;2024-03-23T19:54:37;32.3;;;20.4;;
78079;SDS011;67298;51.322;5.958;2024-03-23T19:59:16;29.1;;;20.2;;
78079;SDS011;67298;51.322;5.958;2024-03-23T20:03:56;27.6;;;17.2;;
78079;SDS011;67298;51.322;5.958;2024-03-23T20:08:35;28.5;;;18.7;;
78079;SDS011;67298;51.322;5.958;2024-03-23T20:13:14;27.4;;;17.8;;
78079;SDS011;67298;51.322;5.958;2024-03-23T20:17:54;28.2;;;19.5;;
78079;SDS011;67298;51.322;5.958;2024-03-23T20:22:33;29.7;;;20.0;;
78079;SDS011;67298;51.322;5.958;2024-03-23T20:27:13;26.8;;;18.6;;
78079;SDS011;67298;51.322;5.958;2024-03-23T20:31:53;29.7;;;20.0;;
78079;SDS011;67298;51.322;5.958;2024-03-23T20:36:32;26.0;;;17.3;;
78079;SDS011;67298;51.322;5.958;2024-03-23T20:41:12;25.0;;;17.1;;
78079;SDS011;67298;51.322;5.958;2024-03-23T20:45:51;30.9;;;19.9;;
78079;SDS011;67298;51.322;5.958;2024-03-23T20:50:34;28.9;;;19.0;;
78079;SDS011;67298;51.322;5.958;2024-03-23T20:55:14;29.5;;;19.7;;
78079;SDS011;67298;51.322;5.958;2024-03-23T20:59:53;29.8;;;20.2;;
78079;SDS011;67298;51.322;5.958;2024-03-23T21:04:33;29.2;;;20.1;;
78079;SDS011;67298;51.322;5.958;2024-03-23T21:09:12;31.9;;;21.6;;
78079;SDS011;67298;51.322;5.958;2024-03-23T21:13:52;30.3;;;18.5;;
78079;SDS011;67298;51.322;5.958;2024-03-23T21:18:31;11.7;;;9.4;;
78079;SDS011;67298;51.322;5.958;2024-03-23T21:23:10;30.5;;;19.2;;
78079;SDS011;67298;51.322;5.958;2024-03-23T21:27:50;29.4;;;17.9;;
78079;SDS011;67298;51.322;5.958;2024-03-23T21:32:29;31.3;;;20.3;;
78079;SDS011;67298;51.322;5.958;2024-03-23T21:37:09;29.9;;;18.5;;
78079;SDS011;67298;51.322;5.958;2024-03-23T21:41:48;25.5;;;17.7;;
78079;SDS011;67298;51.322;5.958;2024-03-23T21:46:27;33.3;;;20.5;;
78079;SDS011;67298;51.322;5.958;2024-03-23T21:51:07;35.4;;;18.4;;
78079;SDS011;67298;51.322;5.958;2024-03-23T21:55:46;34.4;;;20.8;;
78079;SDS011;67298;51.322;5.958;2024-03-23T22:00:26;27.6;;;18.9;;
78079;SDS011;67298;51.322;5.958;2024-03-23T22:05:05;27.1;;;16.6;;
78079;SDS011;67298;51.322;5.958;2024-03-23T22:09:45;30.6;;;19.3;;
78079;SDS011;67298;51.322;5.958;2024-03-23T22:14:24;29.1;;;18.6;;
78079;SDS011;67298;51.322;5.958;2024-03-23T22:19:03;21.8;;;12.6;;
78079;SDS011;67298;51.322;5.958;2024-03-23T22:23:43;32.1;;;19.7;;
78079;SDS011;67298;51.322;5.958;2024-03-23T22:28:22;27.0;;;18.8;;
78079;SDS011;67298;51.322;5.958;2024-03-23T22:33:02;30.0;;;20.5;;
78079;SDS011;67298;51.322;5.958;2024-03-23T22:37:41;33.5;;;19.9;;
78079;SDS011;67298;51.322;5.958;2024-03-23T22:42:23;29.6;;;19.0;;
78079;SDS011;67298;51.322;5.958;2024-03-23T22:47:02;33.8;;;22.0;;
78079;SDS011;67298;51.322;5.958;2024-03-23T22:51:41;34.3;;;21.4;;
78079;SDS011;67298;51.322;5.958;2024-03-23T22:56:21;34.2;;;22.4;;
78079;SDS011;67298;51.322;5.958;2024-03-23T23:01:00;32.1;;;20.6;;
78079;SDS011;67298;51.322;5.958;2024-03-23T23:05:40;32.8;;;19.8;;
78079;SDS011;67298;51.322;5.958;2024-03-23T23:10:19;33.0;;;22.2;;
78079;SDS011;67298;51.322;5.958;2024-03-23T23:14:58;31.6;;;21.0;;
78079;SDS011;67298;51.322;5.958;2024-03-23T23:19:38;27.5;;;19.7;;
78079;SDS011;67298;51.322;5.958;2024-03-23T23:24:18;33.9;;;22.6;;
78079;SDS011;67298;51.322;5.958;2024-03-23T23:28:57;34.7;;;22.4;;
78079;SDS011;67298;51.322;5.958;2024-03-23T23:33:36;36.2;;;23.6;;
78079;SDS011;67298;51.322;5.958;2024-03-23T23:38:16;34.5;;;22.5;;
78079;SDS011;67298;51.322;5.958;2024-03-23T23:42:55;31.8;;;19.8;;
78079;SDS011;67298;51.322;5.958;2024-03-23T23:47:35;35.8;;;22.8;;
78079;SDS011;67298;51.322;5.958;2024-03-23T23:52:14;32.5;;;19.6;;
78079;SDS011;67298;51.322;5.958;2024-03-23T23:56:54;23.7;;;12.3;;
